sensor_id;sensor_type;location;lat;lon;timestamp;P1;durP1;ratioP1;P2;durP2;ratioP2
4553;SDS011;2289;48.316;15.174;2022-07-12T00:00:27;1.70;;;1.20;;
4553;SDS011;2289;48.316;15.174;2022-07-12T00:02:57;2.20;;;1.30;;
4553;SDS011;2289;48.316;15.174;2022-07-12T00:05:27;1.13;;;1.03;;
4553;SDS011;2289;48.316;15.174;2022-07-12T00:07:57;1.17;;;1.07;;
4553;SDS011;2289;48.316;15.174;2022-07-12T00:10:25;1.57;;;1.47;;
4553;SDS011;2289;48.316;15.174;2022-07-12T00:12:53;2.50;;;1.10;;
4553;SDS011;2289;48.316;15.174;2022-07-12T00:15:22;3.03;;;1.40;;
4553;SDS011;2289;48.316;15.174;2022-07-12T00:17:53;1.20;;;1.10;;
4553;SDS011;2289;48.316;15.174;2022-07-12T00:20:23;1.23;;;1.13;;
4553;SDS011;2289;48.316;15.174;2022-07-12T00:22:53;1.27;;;1.20;;
4553;SDS011;2289;48.316;15.174;2022-07-12T00:25:23;2.33;;;1.10;;
4553;SDS011;2289;48.316;15.174;2022-07-12T00:27:53;1.53;;;1.43;;
4553;SDS011;2289;48.316;15.174;2022-07-12T00:30:22;2.20;;;1.50;;
4553;SDS011;2289;48.316;15.174;2022-07-12T00:32:51;1.20;;;1.10;;
4553;SDS011;2289;48.316;15.174;2022-07-12T00:35:21;1.40;;;1.30;;
4553;SDS011;2289;48.316;15.174;2022-07-12T00:37:50;1.40;;;1.30;;
4553;SDS011;2289;48.316;15.174;2022-07-12T00:40:22;2.40;;;1.93;;
4553;SDS011;2289;48.316;15.174;2022-07-12T00:42:52;1.50;;;1.40;;
4553;SDS011;2289;48.316;15.174;2022-07-12T00:45:21;1.07;;;0.93;;
4553;SDS011;2289;48.316;15.174;2022-07-12T00:47:49;1.40;;;1.30;;
4553;SDS011;2289;48.316;15.174;2022-07-12T00:50:20;2.07;;;1.33;;
4553;SDS011;2289;48.316;15.174;2022-07-12T00:52:51;1.20;;;1.10;;
4553;SDS011;2289;48.316;15.174;2022-07-12T00:55:24;0.97;;;0.97;;
4553;SDS011;2289;48.316;15.174;2022-07-12T00:57:54;1.37;;;1.27;;
4553;SDS011;2289;48.316;15.174;2022-07-12T01:00:24;1.50;;;1.40;;
4553;SDS011;2289;48.316;15.174;2022-07-12T01:02:56;1.10;;;1.00;;
4553;SDS011;2289;48.316;15.174;2022-07-12T01:05:25;1.50;;;1.40;;
4553;SDS011;2289;48.316;15.174;2022-07-12T01:07:57;1.87;;;1.67;;
4553;SDS011;2289;48.316;15.174;2022-07-12T01:10:26;2.80;;;1.47;;
4553;SDS011;2289;48.316;15.174;2022-07-12T01:12:56;1.10;;;1.10;;
4553;SDS011;2289;48.316;15.174;2022-07-12T01:15:26;1.80;;;1.10;;
4553;SDS011;2289;48.316;15.174;2022-07-12T01:17:57;4.67;;;1.53;;
4553;SDS011;2289;48.316;15.174;2022-07-12T01:20:27;1.40;;;1.30;;
4553;SDS011;2289;48.316;15.174;2022-07-12T01:22:57;2.10;;;1.20;;
4553;SDS011;2289;48.316;15.174;2022-07-12T01:25:27;3.63;;;1.47;;
4553;SDS011;2289;48.316;15.174;2022-07-12T01:27:56;1.30;;;1.20;;
4553;SDS011;2289;48.316;15.174;2022-07-12T01:30:25;1.63;;;1.30;;
4553;SDS011;2289;48.316;15.174;2022-07-12T01:32:58;4.37;;;1.93;;
4553;SDS011;2289;48.316;15.174;2022-07-12T01:35:27;2.17;;;1.30;;
4553;SDS011;2289;48.316;15.174;2022-07-12T01:37:57;2.13;;;1.40;;
4553;SDS011;2289;48.316;15.174;2022-07-12T01:40:25;2.90;;;1.10;;
4553;SDS011;2289;48.316;15.174;2022-07-12T01:42:54;1.17;;;0.93;;
4553;SDS011;2289;48.316;15.174;2022-07-12T01:45:24;1.90;;;1.07;;
4553;SDS011;2289;48.316;15.174;2022-07-12T01:47:52;1.30;;;1.20;;
4553;SDS011;2289;48.316;15.174;2022-07-12T01:50:21;1.20;;;1.20;;
4553;SDS011;2289;48.316;15.174;2022-07-12T01:52:49;1.33;;;1.20;;
4553;SDS011;2289;48.316;15.174;2022-07-12T01:55:21;1.13;;;1.13;;
4553;SDS011;2289;48.316;15.174;2022-07-12T01:57:51;2.20;;;1.30;;
4553;SDS011;2289;48.316;15.174;2022-07-12T02:00:22;2.90;;;2.07;;
4553;SDS011;2289;48.316;15.174;2022-07-12T02:02:54;1.40;;;1.03;;
4553;SDS011;2289;48.316;15.174;2022-07-12T02:05:23;1.90;;;1.60;;
4553;SDS011;2289;48.316;15.174;2022-07-12T02:07:54;1.40;;;1.30;;
4553;SDS011;2289;48.316;15.174;2022-07-12T02:10:26;2.03;;;1.43;;
4553;SDS011;2289;48.316;15.174;2022-07-12T02:12:54;1.20;;;1.20;;
4553;SDS011;2289;48.316;15.174;2022-07-12T02:15:25;1.23;;;0.90;;
4553;SDS011;2289;48.316;15.174;2022-07-12T02:17:55;2.17;;;1.90;;
4553;SDS011;2289;48.316;15.174;2022-07-12T02:20:24;5.33;;;4.80;;
4553;SDS011;2289;48.316;15.174;2022-07-12T02:22:55;11.73;;;9.20;;
4553;SDS011;2289;48.316;15.174;2022-07-12T02:25:27;11.97;;;7.30;;
4553;SDS011;2289;48.316;15.174;2022-07-12T02:27:55;8.97;;;4.30;;
4553;SDS011;2289;48.316;15.174;2022-07-12T02:30:25;9.00;;;3.37;;
4553;SDS011;2289;48.316;15.174;2022-07-12T02:32:54;3.33;;;2.30;;
4553;SDS011;2289;48.316;15.174;2022-07-12T02:35:22;7.93;;;2.00;;
4553;SDS011;2289;48.316;15.174;2022-07-12T02:37:52;1.63;;;1.53;;
4553;SDS011;2289;48.316;15.174;2022-07-12T02:40:22;2.23;;;1.80;;
4553;SDS011;2289;48.316;15.174;2022-07-12T02:43:11;2.13;;;1.93;;
4553;SDS011;2289;48.316;15.174;2022-07-12T02:45:39;4.60;;;1.20;;
4553;SDS011;2289;48.316;15.174;2022-07-12T02:48:08;11.03;;;4.37;;
4553;SDS011;2289;48.316;15.174;2022-07-12T02:50:38;2.13;;;2.00;;
4553;SDS011;2289;48.316;15.174;2022-07-12T02:53:07;2.10;;;1.90;;
4553;SDS011;2289;48.316;15.174;2022-07-12T02:55:36;3.37;;;2.70;;
4553;SDS011;2289;48.316;15.174;2022-07-12T02:58:06;3.57;;;1.90;;
4553;SDS011;2289;48.316;15.174;2022-07-12T03:00:37;2.17;;;1.67;;
4553;SDS011;2289;48.316;15.174;2022-07-12T03:03:06;2.77;;;1.53;;
4553;SDS011;2289;48.316;15.174;2022-07-12T03:05:38;4.63;;;1.63;;
4553;SDS011;2289;48.316;15.174;2022-07-12T03:08:07;2.73;;;2.30;;
4553;SDS011;2289;48.316;15.174;2022-07-12T03:10:36;2.60;;;1.77;;
4553;SDS011;2289;48.316;15.174;2022-07-12T03:13:05;2.80;;;1.80;;
4553;SDS011;2289;48.316;15.174;2022-07-12T03:15:33;3.43;;;1.60;;
4553;SDS011;2289;48.316;15.174;2022-07-12T03:18:04;5.70;;;1.90;;
4553;SDS011;2289;48.316;15.174;2022-07-12T03:20:35;2.83;;;2.20;;
4553;SDS011;2289;48.316;15.174;2022-07-12T03:23:05;3.00;;;1.43;;
4553;SDS011;2289;48.316;15.174;2022-07-12T03:25:34;3.23;;;1.33;;
4553;SDS011;2289;48.316;15.174;2022-07-12T03:28:02;1.87;;;1.77;;
4553;SDS011;2289;48.316;15.174;2022-07-12T03:30:33;4.30;;;2.23;;
4553;SDS011;2289;48.316;15.174;2022-07-12T03:33:05;2.30;;;1.70;;
4553;SDS011;2289;48.316;15.174;2022-07-12T03:35:34;2.60;;;2.40;;
4553;SDS011;2289;48.316;15.174;2022-07-12T03:38:04;5.53;;;1.57;;
4553;SDS011;2289;48.316;15.174;2022-07-12T03:40:33;3.73;;;1.40;;
4553;SDS011;2289;48.316;15.174;2022-07-12T03:43:02;5.67;;;1.93;;
4553;SDS011;2289;48.316;15.174;2022-07-12T03:45:32;1.83;;;1.60;;
4553;SDS011;2289;48.316;15.174;2022-07-12T03:48:02;2.43;;;1.47;;
4553;SDS011;2289;48.316;15.174;2022-07-12T03:50:32;4.57;;;1.43;;
4553;SDS011;2289;48.316;15.174;2022-07-12T03:53:03;2.83;;;1.40;;
4553;SDS011;2289;48.316;15.174;2022-07-12T03:55:33;1.77;;;1.47;;
4553;SDS011;2289;48.316;15.174;2022-07-12T03:58:02;5.80;;;2.10;;
4553;SDS011;2289;48.316;15.174;2022-07-12T04:00:31;15.00;;;2.20;;
4553;SDS011;2289;48.316;15.174;2022-07-12T04:03:01;3.93;;;1.77;;
4553;SDS011;2289;48.316;15.174;2022-07-12T04:05:33;6.83;;;2.10;;
4553;SDS011;2289;48.316;15.174;2022-07-12T04:08:02;5.47;;;4.00;;
4553;SDS011;2289;48.316;15.174;2022-07-12T04:10:30;6.83;;;2.17;;
4553;SDS011;2289;48.316;15.174;2022-07-12T04:12:59;2.33;;;1.73;;
4553;SDS011;2289;48.316;15.174;2022-07-12T04:15:28;3.23;;;1.60;;
4553;SDS011;2289;48.316;15.174;2022-07-12T04:17:56;5.83;;;1.93;;
4553;SDS011;2289;48.316;15.174;2022-07-12T04:20:27;2.60;;;1.90;;
4553;SDS011;2289;48.316;15.174;2022-07-12T04:22:56;4.57;;;1.53;;
4553;SDS011;2289;48.316;15.174;2022-07-12T04:25:25;7.43;;;2.73;;
4553;SDS011;2289;48.316;15.174;2022-07-12T04:27:56;1.90;;;1.80;;
4553;SDS011;2289;48.316;15.174;2022-07-12T04:30:26;2.93;;;1.60;;
4553;SDS011;2289;48.316;15.174;2022-07-12T04:32:56;1.90;;;1.80;;
4553;SDS011;2289;48.316;15.174;2022-07-12T04:35:25;4.30;;;1.70;;
4553;SDS011;2289;48.316;15.174;2022-07-12T04:37:53;6.37;;;1.90;;
4553;SDS011;2289;48.316;15.174;2022-07-12T04:40:26;1.70;;;1.60;;
4553;SDS011;2289;48.316;15.174;2022-07-12T04:42:54;2.13;;;1.90;;
4553;SDS011;2289;48.316;15.174;2022-07-12T04:45:22;1.80;;;1.70;;
4553;SDS011;2289;48.316;15.174;2022-07-12T04:47:52;3.60;;;2.23;;
4553;SDS011;2289;48.316;15.174;2022-07-12T04:50:28;2.43;;;2.23;;
4553;SDS011;2289;48.316;15.174;2022-07-12T04:52:56;10.10;;;2.07;;
4553;SDS011;2289;48.316;15.174;2022-07-12T04:55:27;2.27;;;1.83;;
4553;SDS011;2289;48.316;15.174;2022-07-12T04:57:56;5.20;;;2.20;;
4553;SDS011;2289;48.316;15.174;2022-07-12T05:00:24;1.90;;;1.80;;
4553;SDS011;2289;48.316;15.174;2022-07-12T05:02:54;2.00;;;1.90;;
4553;SDS011;2289;48.316;15.174;2022-07-12T05:05:26;2.07;;;1.87;;
4553;SDS011;2289;48.316;15.174;2022-07-12T05:07:55;3.73;;;1.90;;
4553;SDS011;2289;48.316;15.174;2022-07-12T05:10:24;9.90;;;1.87;;
4553;SDS011;2289;48.316;15.174;2022-07-12T05:13:00;3.80;;;2.20;;
4553;SDS011;2289;48.316;15.174;2022-07-12T05:15:28;2.03;;;1.60;;
4553;SDS011;2289;48.316;15.174;2022-07-12T05:17:59;5.63;;;1.70;;
4553;SDS011;2289;48.316;15.174;2022-07-12T05:20:27;8.83;;;2.00;;
4553;SDS011;2289;48.316;15.174;2022-07-12T05:22:56;1.90;;;1.70;;
4553;SDS011;2289;48.316;15.174;2022-07-12T05:25:27;3.17;;;1.97;;
4553;SDS011;2289;48.316;15.174;2022-07-12T05:27:57;6.30;;;2.47;;
4553;SDS011;2289;48.316;15.174;2022-07-12T05:30:27;5.70;;;2.53;;
4553;SDS011;2289;48.316;15.174;2022-07-12T05:32:57;4.60;;;2.30;;
4553;SDS011;2289;48.316;15.174;2022-07-12T05:35:27;6.47;;;2.43;;
4553;SDS011;2289;48.316;15.174;2022-07-12T05:37:56;3.70;;;1.93;;
4553;SDS011;2289;48.316;15.174;2022-07-12T05:40:25;11.67;;;2.53;;
4553;SDS011;2289;48.316;15.174;2022-07-12T05:42:58;2.60;;;2.40;;
4553;SDS011;2289;48.316;15.174;2022-07-12T05:45:30;3.13;;;2.17;;
4553;SDS011;2289;48.316;15.174;2022-07-12T05:47:59;1.70;;;1.60;;
4553;SDS011;2289;48.316;15.174;2022-07-12T05:50:28;3.80;;;1.90;;
4553;SDS011;2289;48.316;15.174;2022-07-12T05:52:56;7.80;;;2.20;;
4553;SDS011;2289;48.316;15.174;2022-07-12T05:55:45;2.13;;;1.93;;
4553;SDS011;2289;48.316;15.174;2022-07-12T05:58:20;2.03;;;1.93;;
4553;SDS011;2289;48.316;15.174;2022-07-12T06:00:50;2.33;;;2.13;;
4553;SDS011;2289;48.316;15.174;2022-07-12T06:03:20;4.27;;;2.00;;
4553;SDS011;2289;48.316;15.174;2022-07-12T06:05:51;2.00;;;1.57;;
4553;SDS011;2289;48.316;15.174;2022-07-12T06:08:22;2.80;;;1.63;;
4553;SDS011;2289;48.316;15.174;2022-07-12T06:10:53;4.60;;;2.13;;
4553;SDS011;2289;48.316;15.174;2022-07-12T06:13:22;3.10;;;1.70;;
4553;SDS011;2289;48.316;15.174;2022-07-12T06:15:54;1.77;;;1.67;;
4553;SDS011;2289;48.316;15.174;2022-07-12T06:18:25;2.20;;;1.53;;
4553;SDS011;2289;48.316;15.174;2022-07-12T06:20:55;2.77;;;1.40;;
4553;SDS011;2289;48.316;15.174;2022-07-12T06:23:25;1.37;;;1.27;;
4553;SDS011;2289;48.316;15.174;2022-07-12T06:25:56;1.60;;;1.50;;
4553;SDS011;2289;48.316;15.174;2022-07-12T06:28:26;2.00;;;1.80;;
4553;SDS011;2289;48.316;15.174;2022-07-12T06:31:02;3.00;;;1.50;;
4553;SDS011;2289;48.316;15.174;2022-07-12T06:33:32;1.60;;;1.17;;
4553;SDS011;2289;48.316;15.174;2022-07-12T06:36:05;1.77;;;1.50;;
4553;SDS011;2289;48.316;15.174;2022-07-12T06:38:37;1.60;;;1.50;;
4553;SDS011;2289;48.316;15.174;2022-07-12T06:41:19;1.03;;;0.93;;
4553;SDS011;2289;48.316;15.174;2022-07-12T06:43:48;2.33;;;1.43;;
4553;SDS011;2289;48.316;15.174;2022-07-12T06:46:18;1.20;;;1.10;;
4553;SDS011;2289;48.316;15.174;2022-07-12T06:48:47;3.00;;;1.13;;
4553;SDS011;2289;48.316;15.174;2022-07-12T06:51:16;4.33;;;1.90;;
4553;SDS011;2289;48.316;15.174;2022-07-12T06:53:45;1.13;;;1.03;;
4553;SDS011;2289;48.316;15.174;2022-07-12T06:56:16;4.67;;;1.00;;
4553;SDS011;2289;48.316;15.174;2022-07-12T06:58:45;1.83;;;1.17;;
4553;SDS011;2289;48.316;15.174;2022-07-12T07:01:14;1.03;;;0.93;;
4553;SDS011;2289;48.316;15.174;2022-07-12T07:03:47;2.70;;;1.10;;
4553;SDS011;2289;48.316;15.174;2022-07-12T07:06:17;1.17;;;1.07;;
4553;SDS011;2289;48.316;15.174;2022-07-12T07:08:47;2.10;;;1.00;;
4553;SDS011;2289;48.316;15.174;2022-07-12T07:11:17;5.50;;;1.40;;
4553;SDS011;2289;48.316;15.174;2022-07-12T07:13:46;2.07;;;1.10;;
4553;SDS011;2289;48.316;15.174;2022-07-12T07:16:18;2.07;;;1.10;;
4553;SDS011;2289;48.316;15.174;2022-07-12T07:18:52;1.87;;;0.93;;
4553;SDS011;2289;48.316;15.174;2022-07-12T07:21:20;1.37;;;1.10;;
4553;SDS011;2289;48.316;15.174;2022-07-12T07:23:49;1.10;;;1.00;;
4553;SDS011;2289;48.316;15.174;2022-07-12T07:26:18;1.63;;;0.87;;
4553;SDS011;2289;48.316;15.174;2022-07-12T07:28:49;3.93;;;1.13;;
4553;SDS011;2289;48.316;15.174;2022-07-12T07:31:35;1.30;;;1.00;;
4553;SDS011;2289;48.316;15.174;2022-07-12T07:34:06;2.30;;;1.20;;
4553;SDS011;2289;48.316;15.174;2022-07-12T07:36:37;3.00;;;1.20;;
4553;SDS011;2289;48.316;15.174;2022-07-12T07:39:05;1.97;;;1.10;;
4553;SDS011;2289;48.316;15.174;2022-07-12T07:41:36;1.73;;;1.00;;
4553;SDS011;2289;48.316;15.174;2022-07-12T07:44:06;6.00;;;1.10;;
4553;SDS011;2289;48.316;15.174;2022-07-12T07:46:34;1.90;;;1.03;;
4553;SDS011;2289;48.316;15.174;2022-07-12T07:49:03;1.43;;;1.20;;
4553;SDS011;2289;48.316;15.174;2022-07-12T07:51:33;2.40;;;1.00;;
4553;SDS011;2289;48.316;15.174;2022-07-12T07:54:01;1.03;;;0.80;;
4553;SDS011;2289;48.316;15.174;2022-07-12T07:56:30;1.57;;;1.00;;
4553;SDS011;2289;48.316;15.174;2022-07-12T07:58:59;1.97;;;1.10;;
4553;SDS011;2289;48.316;15.174;2022-07-12T08:01:28;1.50;;;1.20;;
4553;SDS011;2289;48.316;15.174;2022-07-12T08:04:15;4.00;;;1.10;;
4553;SDS011;2289;48.316;15.174;2022-07-12T08:06:48;2.10;;;0.97;;
4553;SDS011;2289;48.316;15.174;2022-07-12T08:09:19;1.40;;;0.90;;
4553;SDS011;2289;48.316;15.174;2022-07-12T08:11:48;0.80;;;0.80;;
4553;SDS011;2289;48.316;15.174;2022-07-12T08:14:16;1.40;;;1.07;;
4553;SDS011;2289;48.316;15.174;2022-07-12T08:16:45;1.53;;;1.10;;
4553;SDS011;2289;48.316;15.174;2022-07-12T08:19:15;1.43;;;1.33;;
4553;SDS011;2289;48.316;15.174;2022-07-12T08:21:45;5.87;;;1.20;;
4553;SDS011;2289;48.316;15.174;2022-07-12T08:24:15;1.00;;;0.87;;
4553;SDS011;2289;48.316;15.174;2022-07-12T08:26:44;2.70;;;1.00;;
4553;SDS011;2289;48.316;15.174;2022-07-12T08:29:14;2.07;;;1.30;;
4553;SDS011;2289;48.316;15.174;2022-07-12T08:31:46;1.37;;;1.27;;
4553;SDS011;2289;48.316;15.174;2022-07-12T08:34:15;9.20;;;2.97;;
4553;SDS011;2289;48.316;15.174;2022-07-12T08:36:45;1.43;;;1.27;;
4553;SDS011;2289;48.316;15.174;2022-07-12T08:39:15;1.33;;;1.20;;
4553;SDS011;2289;48.316;15.174;2022-07-12T08:41:46;1.77;;;1.23;;
4553;SDS011;2289;48.316;15.174;2022-07-12T08:44:15;1.23;;;1.00;;
4553;SDS011;2289;48.316;15.174;2022-07-12T08:46:47;2.73;;;1.00;;
4553;SDS011;2289;48.316;15.174;2022-07-12T08:49:16;5.33;;;0.90;;
4553;SDS011;2289;48.316;15.174;2022-07-12T08:51:45;2.83;;;1.30;;
4553;SDS011;2289;48.316;15.174;2022-07-12T08:54:16;1.40;;;0.90;;
4553;SDS011;2289;48.316;15.174;2022-07-12T08:56:47;2.77;;;1.00;;
4553;SDS011;2289;48.316;15.174;2022-07-12T08:59:18;1.33;;;1.10;;
4553;SDS011;2289;48.316;15.174;2022-07-12T09:01:49;1.53;;;1.10;;
4553;SDS011;2289;48.316;15.174;2022-07-12T09:04:19;0.80;;;0.80;;
4553;SDS011;2289;48.316;15.174;2022-07-12T09:06:50;3.70;;;0.93;;
4553;SDS011;2289;48.316;15.174;2022-07-12T09:09:30;1.63;;;1.00;;
4553;SDS011;2289;48.316;15.174;2022-07-12T09:12:00;1.57;;;1.10;;
4553;SDS011;2289;48.316;15.174;2022-07-12T09:14:31;1.20;;;0.90;;
4553;SDS011;2289;48.316;15.174;2022-07-12T09:17:02;3.40;;;1.30;;
4553;SDS011;2289;48.316;15.174;2022-07-12T09:19:38;1.40;;;1.17;;
4553;SDS011;2289;48.316;15.174;2022-07-12T09:22:13;2.30;;;1.60;;
4553;SDS011;2289;48.316;15.174;2022-07-12T09:24:46;1.43;;;1.00;;
4553;SDS011;2289;48.316;15.174;2022-07-12T09:27:23;4.33;;;1.07;;
4553;SDS011;2289;48.316;15.174;2022-07-12T09:29:54;1.30;;;1.20;;
4553;SDS011;2289;48.316;15.174;2022-07-12T09:32:26;1.90;;;1.00;;
4553;SDS011;2289;48.316;15.174;2022-07-12T09:35:13;1.20;;;0.83;;
4553;SDS011;2289;48.316;15.174;2022-07-12T09:38:10;1.60;;;1.47;;
4553;SDS011;2289;48.316;15.174;2022-07-12T09:40:42;1.30;;;1.20;;
4553;SDS011;2289;48.316;15.174;2022-07-12T09:43:10;4.73;;;1.07;;
4553;SDS011;2289;48.316;15.174;2022-07-12T09:45:40;1.30;;;1.10;;
4553;SDS011;2289;48.316;15.174;2022-07-12T09:48:12;5.70;;;1.40;;
4553;SDS011;2289;48.316;15.174;2022-07-12T09:50:44;1.53;;;1.03;;
4553;SDS011;2289;48.316;15.174;2022-07-12T09:53:20;3.30;;;1.07;;
4553;SDS011;2289;48.316;15.174;2022-07-12T09:55:52;1.43;;;1.17;;
4553;SDS011;2289;48.316;15.174;2022-07-12T09:58:30;2.87;;;0.93;;
4553;SDS011;2289;48.316;15.174;2022-07-12T10:00:59;0.90;;;0.90;;
4553;SDS011;2289;48.316;15.174;2022-07-12T10:03:29;1.97;;;1.40;;
4553;SDS011;2289;48.316;15.174;2022-07-12T10:06:03;2.13;;;1.10;;
4553;SDS011;2289;48.316;15.174;2022-07-12T10:08:36;2.60;;;2.40;;
4553;SDS011;2289;48.316;15.174;2022-07-12T10:11:20;1.97;;;1.80;;
4553;SDS011;2289;48.316;15.174;2022-07-12T10:14:11;2.10;;;1.80;;
4553;SDS011;2289;48.316;15.174;2022-07-12T10:16:42;1.57;;;1.47;;
4553;SDS011;2289;48.316;15.174;2022-07-12T10:19:22;1.73;;;1.47;;
4553;SDS011;2289;48.316;15.174;2022-07-12T10:21:54;1.33;;;1.20;;
4553;SDS011;2289;48.316;15.174;2022-07-12T10:27:28;7.10;;;1.40;;
4553;SDS011;2289;48.316;15.174;2022-07-12T10:32:48;1.77;;;1.20;;
4553;SDS011;2289;48.316;15.174;2022-07-12T10:35:21;1.93;;;1.10;;
4553;SDS011;2289;48.316;15.174;2022-07-12T10:40:46;3.43;;;1.80;;
4553;SDS011;2289;48.316;15.174;2022-07-12T10:43:25;6.80;;;2.00;;
4553;SDS011;2289;48.316;15.174;2022-07-12T10:46:21;4.03;;;3.30;;
4553;SDS011;2289;48.316;15.174;2022-07-12T10:57:48;7.30;;;1.57;;
4553;SDS011;2289;48.316;15.174;2022-07-12T11:00:23;1.37;;;1.27;;
4553;SDS011;2289;48.316;15.174;2022-07-12T11:02:53;1.20;;;1.10;;
4553;SDS011;2289;48.316;15.174;2022-07-12T11:05:26;1.00;;;1.00;;
4553;SDS011;2289;48.316;15.174;2022-07-12T11:07:58;1.00;;;0.90;;
4553;SDS011;2289;48.316;15.174;2022-07-12T11:10:34;1.30;;;1.20;;
4553;SDS011;2289;48.316;15.174;2022-07-12T11:13:04;1.33;;;1.23;;
4553;SDS011;2289;48.316;15.174;2022-07-12T11:15:57;1.10;;;1.00;;
4553;SDS011;2289;48.316;15.174;2022-07-12T11:18:29;2.57;;;1.20;;
4553;SDS011;2289;48.316;15.174;2022-07-12T11:21:00;2.07;;;1.87;;
4553;SDS011;2289;48.316;15.174;2022-07-12T11:23:29;5.33;;;1.57;;
4553;SDS011;2289;48.316;15.174;2022-07-12T11:26:00;1.33;;;1.20;;
4553;SDS011;2289;48.316;15.174;2022-07-12T11:28:30;1.53;;;1.30;;
4553;SDS011;2289;48.316;15.174;2022-07-12T11:31:04;5.27;;;1.40;;
4553;SDS011;2289;48.316;15.174;2022-07-12T11:33:40;2.20;;;1.00;;
4553;SDS011;2289;48.316;15.174;2022-07-12T11:36:10;1.80;;;1.10;;
4553;SDS011;2289;48.316;15.174;2022-07-12T11:38:39;1.47;;;1.07;;
4553;SDS011;2289;48.316;15.174;2022-07-12T11:41:11;1.40;;;1.30;;
4553;SDS011;2289;48.316;15.174;2022-07-12T11:43:40;1.53;;;1.10;;
4553;SDS011;2289;48.316;15.174;2022-07-12T11:46:10;3.93;;;1.57;;
4553;SDS011;2289;48.316;15.174;2022-07-12T11:48:43;1.93;;;1.57;;
4553;SDS011;2289;48.316;15.174;2022-07-12T11:51:12;2.60;;;1.33;;
4553;SDS011;2289;48.316;15.174;2022-07-12T11:53:43;1.40;;;1.30;;
4553;SDS011;2289;48.316;15.174;2022-07-12T11:56:11;1.90;;;1.40;;
4553;SDS011;2289;48.316;15.174;2022-07-12T11:58:40;2.00;;;1.00;;
4553;SDS011;2289;48.316;15.174;2022-07-12T12:01:12;2.20;;;1.30;;
4553;SDS011;2289;48.316;15.174;2022-07-12T12:03:42;2.60;;;1.43;;
4553;SDS011;2289;48.316;15.174;2022-07-12T12:06:15;1.27;;;1.17;;
4553;SDS011;2289;48.316;15.174;2022-07-12T12:08:44;2.13;;;1.30;;
4553;SDS011;2289;48.316;15.174;2022-07-12T12:11:14;2.07;;;1.30;;
4553;SDS011;2289;48.316;15.174;2022-07-12T12:13:44;4.23;;;1.40;;
4553;SDS011;2289;48.316;15.174;2022-07-12T12:16:25;2.17;;;1.20;;
4553;SDS011;2289;48.316;15.174;2022-07-12T12:18:59;3.10;;;1.27;;
4553;SDS011;2289;48.316;15.174;2022-07-12T12:21:29;2.70;;;1.60;;
4553;SDS011;2289;48.316;15.174;2022-07-12T12:24:08;1.80;;;1.70;;
4553;SDS011;2289;48.316;15.174;2022-07-12T12:26:36;1.33;;;1.23;;
4553;SDS011;2289;48.316;15.174;2022-07-12T12:29:05;1.53;;;1.43;;
4553;SDS011;2289;48.316;15.174;2022-07-12T12:31:37;2.77;;;1.37;;
4553;SDS011;2289;48.316;15.174;2022-07-12T12:34:09;2.30;;;1.00;;
4553;SDS011;2289;48.316;15.174;2022-07-12T12:36:40;1.47;;;1.37;;
4553;SDS011;2289;48.316;15.174;2022-07-12T12:39:09;2.63;;;1.47;;
4553;SDS011;2289;48.316;15.174;2022-07-12T12:41:39;4.30;;;2.27;;
4553;SDS011;2289;48.316;15.174;2022-07-12T12:44:10;1.63;;;1.40;;
4553;SDS011;2289;48.316;15.174;2022-07-12T12:46:51;4.20;;;2.30;;
4553;SDS011;2289;48.316;15.174;2022-07-12T12:49:44;1.83;;;1.60;;
4553;SDS011;2289;48.316;15.174;2022-07-12T12:52:23;2.83;;;1.50;;
4553;SDS011;2289;48.316;15.174;2022-07-12T12:54:53;5.20;;;1.90;;
4553;SDS011;2289;48.316;15.174;2022-07-12T12:57:23;1.90;;;1.30;;
4553;SDS011;2289;48.316;15.174;2022-07-12T12:59:54;1.20;;;1.10;;
4553;SDS011;2289;48.316;15.174;2022-07-12T13:02:24;2.20;;;1.37;;
4553;SDS011;2289;48.316;15.174;2022-07-12T13:04:53;1.97;;;1.50;;
4553;SDS011;2289;48.316;15.174;2022-07-12T13:07:25;1.57;;;1.20;;
4553;SDS011;2289;48.316;15.174;2022-07-12T13:09:56;1.70;;;1.03;;
4553;SDS011;2289;48.316;15.174;2022-07-12T13:12:29;1.17;;;1.07;;
4553;SDS011;2289;48.316;15.174;2022-07-12T13:14:59;3.03;;;1.17;;
4553;SDS011;2289;48.316;15.174;2022-07-12T13:17:29;2.60;;;1.10;;
4553;SDS011;2289;48.316;15.174;2022-07-12T13:19:58;4.67;;;1.37;;
4553;SDS011;2289;48.316;15.174;2022-07-12T13:22:28;1.57;;;1.47;;
4553;SDS011;2289;48.316;15.174;2022-07-12T13:24:57;2.80;;;2.37;;
4553;SDS011;2289;48.316;15.174;2022-07-12T13:27:26;3.63;;;1.93;;
4553;SDS011;2289;48.316;15.174;2022-07-12T13:29:56;4.70;;;1.83;;
4553;SDS011;2289;48.316;15.174;2022-07-12T13:32:25;2.60;;;2.37;;
4553;SDS011;2289;48.316;15.174;2022-07-12T13:34:55;2.87;;;1.80;;
4553;SDS011;2289;48.316;15.174;2022-07-12T13:37:24;1.60;;;1.30;;
4553;SDS011;2289;48.316;15.174;2022-07-12T13:39:52;6.10;;;3.03;;
4553;SDS011;2289;48.316;15.174;2022-07-12T13:42:42;1.97;;;1.20;;
4553;SDS011;2289;48.316;15.174;2022-07-12T13:45:13;4.53;;;1.53;;
4553;SDS011;2289;48.316;15.174;2022-07-12T13:47:48;1.93;;;1.23;;
4553;SDS011;2289;48.316;15.174;2022-07-12T13:50:19;1.57;;;1.47;;
4553;SDS011;2289;48.316;15.174;2022-07-12T13:52:56;1.63;;;1.40;;
4553;SDS011;2289;48.316;15.174;2022-07-12T13:55:29;3.27;;;1.40;;
4553;SDS011;2289;48.316;15.174;2022-07-12T13:57:58;2.23;;;1.27;;
4553;SDS011;2289;48.316;15.174;2022-07-12T14:00:27;3.00;;;1.13;;
4553;SDS011;2289;48.316;15.174;2022-07-12T14:02:57;3.77;;;1.60;;
4553;SDS011;2289;48.316;15.174;2022-07-12T14:05:29;2.43;;;1.23;;
4553;SDS011;2289;48.316;15.174;2022-07-12T14:08:00;1.73;;;1.40;;
4553;SDS011;2289;48.316;15.174;2022-07-12T14:10:29;1.90;;;1.50;;
4553;SDS011;2289;48.316;15.174;2022-07-12T14:13:08;4.70;;;1.57;;
4553;SDS011;2289;48.316;15.174;2022-07-12T14:15:39;8.00;;;3.10;;
4553;SDS011;2289;48.316;15.174;2022-07-12T14:18:09;1.43;;;1.20;;
4553;SDS011;2289;48.316;15.174;2022-07-12T14:20:42;6.17;;;1.50;;
4553;SDS011;2289;48.316;15.174;2022-07-12T14:23:12;1.70;;;1.20;;
4553;SDS011;2289;48.316;15.174;2022-07-12T14:25:40;3.10;;;1.10;;
4553;SDS011;2289;48.316;15.174;2022-07-12T14:28:09;2.33;;;1.40;;
4553;SDS011;2289;48.316;15.174;2022-07-12T14:30:37;3.53;;;1.00;;
4553;SDS011;2289;48.316;15.174;2022-07-12T14:33:07;1.43;;;1.23;;
4553;SDS011;2289;48.316;15.174;2022-07-12T14:35:36;2.47;;;1.37;;
4553;SDS011;2289;48.316;15.174;2022-07-12T14:38:06;1.90;;;0.90;;
4553;SDS011;2289;48.316;15.174;2022-07-12T14:40:36;1.87;;;1.10;;
4553;SDS011;2289;48.316;15.174;2022-07-12T14:43:06;1.73;;;1.40;;
4553;SDS011;2289;48.316;15.174;2022-07-12T14:45:37;2.83;;;1.20;;
4553;SDS011;2289;48.316;15.174;2022-07-12T14:48:08;1.33;;;1.23;;
4553;SDS011;2289;48.316;15.174;2022-07-12T14:50:37;1.10;;;1.00;;
4553;SDS011;2289;48.316;15.174;2022-07-12T14:53:08;5.63;;;1.13;;
4553;SDS011;2289;48.316;15.174;2022-07-12T14:55:38;2.70;;;1.10;;
4553;SDS011;2289;48.316;15.174;2022-07-12T14:58:07;3.10;;;1.13;;
4553;SDS011;2289;48.316;15.174;2022-07-12T15:00:37;2.93;;;1.40;;
4553;SDS011;2289;48.316;15.174;2022-07-12T15:03:06;1.73;;;1.43;;
4553;SDS011;2289;48.316;15.174;2022-07-12T15:05:39;2.93;;;1.17;;
4553;SDS011;2289;48.316;15.174;2022-07-12T15:08:10;1.23;;;1.00;;
4553;SDS011;2289;48.316;15.174;2022-07-12T15:10:38;1.67;;;1.10;;
4553;SDS011;2289;48.316;15.174;2022-07-12T15:13:07;2.20;;;1.40;;
4553;SDS011;2289;48.316;15.174;2022-07-12T15:15:35;1.27;;;1.17;;
4553;SDS011;2289;48.316;15.174;2022-07-12T15:18:06;1.27;;;1.03;;
4553;SDS011;2289;48.316;15.174;2022-07-12T15:20:35;1.20;;;1.00;;
4553;SDS011;2289;48.316;15.174;2022-07-12T15:23:05;2.60;;;1.70;;
4553;SDS011;2289;48.316;15.174;2022-07-12T15:25:37;1.63;;;1.20;;
4553;SDS011;2289;48.316;15.174;2022-07-12T15:28:08;1.83;;;1.03;;
4553;SDS011;2289;48.316;15.174;2022-07-12T15:30:37;1.27;;;1.17;;
4553;SDS011;2289;48.316;15.174;2022-07-12T15:33:07;1.67;;;1.33;;
4553;SDS011;2289;48.316;15.174;2022-07-12T15:35:35;2.10;;;1.40;;
4553;SDS011;2289;48.316;15.174;2022-07-12T15:38:05;2.83;;;1.10;;
4553;SDS011;2289;48.316;15.174;2022-07-12T15:40:35;2.17;;;1.57;;